sensor_id;sensor_type;location;lat;lon;timestamp;pressure;altitude;pressure_sealevel;temperature;humidity
64967;BME280;51710;38.732;-121.358;2024-03-07T00:00:10;100527.50;;;18.40;59.60
64967;BME280;51710;38.732;-121.358;2024-03-07T00:02:51;100526.63;;;18.40;59.48
64967;BME280;51710;38.732;-121.358;2024-03-07T00:05:21;100525.22;;;18.37;58.51
64967;BME280;51710;38.732;-121.358;2024-03-07T00:07:53;100527.31;;;18.29;59.38
64967;BME280;51710;38.732;-121.358;2024-03-07T00:10:20;100529.41;;;18.27;59.74
64967;BME280;51710;38.732;-121.358;2024-03-07T00:12:47;100529.41;;;18.27;59.67
64967;BME280;51710;38.732;-121.358;2024-03-07T00:15:14;100529.78;;;18.24;59.22
64967;BME280;51710;38.732;-121.358;2024-03-07T00:17:41;100526.91;;;18.19;58.60
64967;BME280;51710;38.732;-121.358;2024-03-07T00:20:09;100528.38;;;18.15;59.70
64967;BME280;51710;38.732;-121.358;2024-03-07T00:22:43;100524.44;;;18.11;59.04
64967;BME280;51710;38.732;-121.358;2024-03-07T00:25:10;100530.91;;;18.10;59.46
64967;BME280;51710;38.732;-121.358;2024-03-07T00:27:37;100533.97;;;18.07;58.71
64967;BME280;51710;38.732;-121.358;2024-03-07T00:30:04;100524.28;;;17.99;59.66
64967;BME280;51710;38.732;-121.358;2024-03-07T00:32:34;100530.47;;;17.99;59.92
64967;BME280;51710;38.732;-121.358;2024-03-07T00:35:08;100526.56;;;17.95;59.68
64967;BME280;51710;38.732;-121.358;2024-03-07T00:37:35;100535.91;;;17.86;59.75
64967;BME280;51710;38.732;-121.358;2024-03-07T00:40:05;100527.00;;;17.73;59.87
64967;BME280;51710;38.732;-121.358;2024-03-07T00:42:32;100533.84;;;17.62;60.30
64967;BME280;51710;38.732;-121.358;2024-03-07T00:44:58;100533.00;;;17.55;60.57
64967;BME280;51710;38.732;-121.358;2024-03-07T00:47:25;100533.81;;;17.49;61.02
64967;BME280;51710;38.732;-121.358;2024-03-07T00:49:51;100541.88;;;17.43;61.32
64967;BME280;51710;38.732;-121.358;2024-03-07T00:52:17;100534.59;;;17.37;61.66
64967;BME280;51710;38.732;-121.358;2024-03-07T00:54:43;100540.19;;;17.35;62.00
64967;BME280;51710;38.732;-121.358;2024-03-07T00:57:10;100540.00;;;17.30;61.70
64967;BME280;51710;38.732;-121.358;2024-03-07T00:59:36;100544.75;;;17.28;62.50
64967;BME280;51710;38.732;-121.358;2024-03-07T01:02:03;100548.91;;;17.24;62.52
64967;BME280;51710;38.732;-121.358;2024-03-07T01:04:30;100538.53;;;17.21;63.24
64967;BME280;51710;38.732;-121.358;2024-03-07T01:06:59;100540.59;;;17.19;63.27
64967;BME280;51710;38.732;-121.358;2024-03-07T01:09:26;100544.31;;;17.18;63.85
64967;BME280;51710;38.732;-121.358;2024-03-07T01:11:56;100540.59;;;17.19;63.65
64967;BME280;51710;38.732;-121.358;2024-03-07T01:14:22;100547.66;;;17.20;64.04
64967;BME280;51710;38.732;-121.358;2024-03-07T01:16:49;100539.78;;;17.19;64.27
64967;BME280;51710;38.732;-121.358;2024-03-07T01:19:15;100546.38;;;17.16;64.37
64967;BME280;51710;38.732;-121.358;2024-03-07T01:21:41;100545.13;;;17.12;64.61
64967;BME280;51710;38.732;-121.358;2024-03-07T01:24:08;100540.16;;;17.09;64.79
64967;BME280;51710;38.732;-121.358;2024-03-07T01:26:35;100548.66;;;17.06;65.11
64967;BME280;51710;38.732;-121.358;2024-03-07T01:29:01;100548.00;;;17.04;65.58
64967;BME280;51710;38.732;-121.358;2024-03-07T01:31:27;100546.75;;;17.00;65.90
64967;BME280;51710;38.732;-121.358;2024-03-07T01:33:54;100548.22;;;16.96;66.17
64967;BME280;51710;38.732;-121.358;2024-03-07T01:36:20;100547.16;;;16.91;66.35
64967;BME280;51710;38.732;-121.358;2024-03-07T01:38:47;100549.63;;;16.85;66.60
64967;BME280;51710;38.732;-121.358;2024-03-07T01:41:13;100548.38;;;16.81;67.12
64967;BME280;51710;38.732;-121.358;2024-03-07T01:43:41;100544.81;;;16.74;67.02
64967;BME280;51710;38.732;-121.358;2024-03-07T01:46:08;100543.31;;;16.65;66.99
64967;BME280;51710;38.732;-121.358;2024-03-07T01:48:37;100546.41;;;16.56;67.26
64967;BME280;51710;38.732;-121.358;2024-03-07T01:51:04;100542.41;;;16.45;67.41
64967;BME280;51710;38.732;-121.358;2024-03-07T01:53:31;100549.16;;;16.35;67.68
64967;BME280;51710;38.732;-121.358;2024-03-07T01:55:59;100556.56;;;16.26;67.96
64967;BME280;51710;38.732;-121.358;2024-03-07T01:58:26;100554.84;;;16.19;68.36
64967;BME280;51710;38.732;-121.358;2024-03-07T02:00:53;100555.03;;;16.11;68.19
64967;BME280;51710;38.732;-121.358;2024-03-07T02:03:19;100557.44;;;16.06;68.47
64967;BME280;51710;38.732;-121.358;2024-03-07T02:05:45;100553.50;;;16.02;68.41
64967;BME280;51710;38.732;-121.358;2024-03-07T02:08:12;100558.03;;;16.01;69.01
64967;BME280;51710;38.732;-121.358;2024-03-07T02:10:41;100561.56;;;16.02;68.61
64967;BME280;51710;38.732;-121.358;2024-03-07T02:13:08;100563.63;;;16.00;68.32
64967;BME280;51710;38.732;-121.358;2024-03-07T02:15:34;100565.41;;;15.93;68.53
64967;BME280;51710;38.732;-121.358;2024-03-07T02:18:01;100557.31;;;15.86;68.85
64967;BME280;51710;38.732;-121.358;2024-03-07T02:20:27;100553.56;;;15.81;68.84
64967;BME280;51710;38.732;-121.358;2024-03-07T02:22:54;100550.22;;;15.78;68.73
64967;BME280;51710;38.732;-121.358;2024-03-07T02:25:21;100543.97;;;15.71;68.89
64967;BME280;51710;38.732;-121.358;2024-03-07T02:27:48;100550.13;;;15.65;69.06
64967;BME280;51710;38.732;-121.358;2024-03-07T02:30:14;100561.63;;;15.59;69.28
64967;BME280;51710;38.732;-121.358;2024-03-07T02:32:40;100557.44;;;15.50;69.26
64967;BME280;51710;38.732;-121.358;2024-03-07T02:35:07;100563.13;;;15.41;69.34
64967;BME280;51710;38.732;-121.358;2024-03-07T02:37:34;100552.69;;;15.31;69.26
64967;BME280;51710;38.732;-121.358;2024-03-07T02:40:00;100556.13;;;15.25;69.55
64967;BME280;51710;38.732;-121.358;2024-03-07T02:42:27;100554.22;;;15.19;69.67
64967;BME280;51710;38.732;-121.358;2024-03-07T02:44:53;100563.84;;;15.14;69.66
64967;BME280;51710;38.732;-121.358;2024-03-07T02:47:20;100561.50;;;15.04;69.48
64967;BME280;51710;38.732;-121.358;2024-03-07T02:49:49;100566.31;;;14.94;70.17
64967;BME280;51710;38.732;-121.358;2024-03-07T02:52:15;100556.47;;;14.80;69.69
64967;BME280;51710;38.732;-121.358;2024-03-07T02:54:42;100563.31;;;14.68;70.40
64967;BME280;51710;38.732;-121.358;2024-03-07T02:57:09;100561.94;;;14.57;70.54
64967;BME280;51710;38.732;-121.358;2024-03-07T02:59:37;100566.22;;;14.52;70.87
64967;BME280;51710;38.732;-121.358;2024-03-07T03:02:03;100562.88;;;14.50;70.70
64967;BME280;51710;38.732;-121.358;2024-03-07T03:04:31;100562.88;;;14.50;70.59
64967;BME280;51710;38.732;-121.358;2024-03-07T03:06:58;100562.25;;;14.48;71.06
64967;BME280;51710;38.732;-121.358;2024-03-07T03:09:25;100561.84;;;14.51;71.25
64967;BME280;51710;38.732;-121.358;2024-03-07T03:11:53;100560.41;;;14.48;70.92
64967;BME280;51710;38.732;-121.358;2024-03-07T03:14:19;100573.16;;;14.46;71.21
64967;BME280;51710;38.732;-121.358;2024-03-07T03:16:47;100576.03;;;14.45;70.79
64967;BME280;51710;38.732;-121.358;2024-03-07T03:19:13;100571.00;;;14.42;71.19
64967;BME280;51710;38.732;-121.358;2024-03-07T03:21:39;100576.75;;;14.39;70.73
64967;BME280;51710;38.732;-121.358;2024-03-07T03:24:06;100576.47;;;14.34;70.97
64967;BME280;51710;38.732;-121.358;2024-03-07T03:26:33;100578.22;;;14.27;71.02
64967;BME280;51710;38.732;-121.358;2024-03-07T03:28:59;100576.63;;;14.18;71.15
64967;BME280;51710;38.732;-121.358;2024-03-07T03:31:26;100578.75;;;14.08;71.46
64967;BME280;51710;38.732;-121.358;2024-03-07T03:33:52;100575.22;;;13.93;71.79
64967;BME280;51710;38.732;-121.358;2024-03-07T03:36:18;100576.31;;;13.84;72.10
64967;BME280;51710;38.732;-121.358;2024-03-07T03:38:44;100577.75;;;13.72;72.34
64967;BME280;51710;38.732;-121.358;2024-03-07T03:41:15;100582.88;;;13.58;72.76
64967;BME280;51710;38.732;-121.358;2024-03-07T03:43:43;100583.94;;;13.49;72.97
64967;BME280;51710;38.732;-121.358;2024-03-07T03:46:10;100580.50;;;13.41;73.33
64967;BME280;51710;38.732;-121.358;2024-03-07T03:48:39;100582.41;;;13.32;73.55
64967;BME280;51710;38.732;-121.358;2024-03-07T03:51:09;100581.13;;;13.28;73.85
64967;BME280;51710;38.732;-121.358;2024-03-07T03:53:36;100579.09;;;13.30;73.86
64967;BME280;51710;38.732;-121.358;2024-03-07T03:56:03;100586.13;;;13.31;73.98
64967;BME280;51710;38.732;-121.358;2024-03-07T03:58:32;100589.78;;;13.30;73.77
64967;BME280;51710;38.732;-121.358;2024-03-07T04:00:59;100583.25;;;13.33;73.78
64967;BME280;51710;38.732;-121.358;2024-03-07T04:03:26;100592.13;;;13.33;73.93
64967;BME280;51710;38.732;-121.358;2024-03-07T04:05:53;100592.75;;;13.35;73.93
64967;BME280;51710;38.732;-121.358;2024-03-07T04:08:21;100591.75;;;13.36;73.74
64967;BME280;51710;38.732;-121.358;2024-03-07T04:10:47;100597.75;;;13.38;73.65
64967;BME280;51710;38.732;-121.358;2024-03-07T04:13:13;100593.78;;;13.34;73.47
64967;BME280;51710;38.732;-121.358;2024-03-07T04:15:40;100590.63;;;13.31;73.36
64967;BME280;51710;38.732;-121.358;2024-03-07T04:18:07;100590.97;;;13.28;73.62
64967;BME280;51710;38.732;-121.358;2024-03-07T04:20:33;100597.19;;;13.28;73.55
64967;BME280;51710;38.732;-121.358;2024-03-07T04:22:59;100589.16;;;13.28;73.57
64967;BME280;51710;38.732;-121.358;2024-03-07T04:25:26;100591.34;;;13.25;73.50
64967;BME280;51710;38.732;-121.358;2024-03-07T04:27:54;100600.06;;;13.19;73.81
64967;BME280;51710;38.732;-121.358;2024-03-07T04:30:20;100591.94;;;13.12;73.35
64967;BME280;51710;38.732;-121.358;2024-03-07T04:32:47;100589.97;;;12.98;74.00
64967;BME280;51710;38.732;-121.358;2024-03-07T04:35:13;100586.50;;;12.90;73.94
64967;BME280;51710;38.732;-121.358;2024-03-07T04:37:40;100600.75;;;12.82;74.34
64967;BME280;51710;38.732;-121.358;2024-03-07T04:40:08;100590.75;;;12.76;74.37
64967;BME280;51710;38.732;-121.358;2024-03-07T04:42:48;100600.94;;;12.73;74.29
64967;BME280;51710;38.732;-121.358;2024-03-07T04:45:20;100610.53;;;12.59;73.86
64967;BME280;51710;38.732;-121.358;2024-03-07T04:47:47;100613.78;;;12.38;74.31
64967;BME280;51710;38.732;-121.358;2024-03-07T04:50:14;100618.00;;;12.25;75.23
64967;BME280;51710;38.732;-121.358;2024-03-07T04:52:43;100625.16;;;12.24;75.43
64967;BME280;51710;38.732;-121.358;2024-03-07T04:55:10;100634.00;;;12.25;75.85
64967;BME280;51710;38.732;-121.358;2024-03-07T04:57:40;100632.31;;;12.24;75.80
64967;BME280;51710;38.732;-121.358;2024-03-07T05:00:16;100629.00;;;12.22;75.78
64967;BME280;51710;38.732;-121.358;2024-03-07T05:02:47;100635.88;;;12.16;75.38
64967;BME280;51710;38.732;-121.358;2024-03-07T05:05:15;100637.38;;;12.11;75.58
64967;BME280;51710;38.732;-121.358;2024-03-07T05:07:48;100636.41;;;11.96;75.78
64967;BME280;51710;38.732;-121.358;2024-03-07T05:10:16;100651.22;;;11.82;76.06
64967;BME280;51710;38.732;-121.358;2024-03-07T05:12:42;100661.75;;;11.68;76.26
64967;BME280;51710;38.732;-121.358;2024-03-07T05:15:08;100655.03;;;11.56;77.13
64967;BME280;51710;38.732;-121.358;2024-03-07T05:17:37;100657.84;;;11.54;77.19
64967;BME280;51710;38.732;-121.358;2024-03-07T05:20:06;100657.34;;;11.51;77.83
64967;BME280;51710;38.732;-121.358;2024-03-07T05:22:36;100664.00;;;11.47;77.46
64967;BME280;51710;38.732;-121.358;2024-03-07T05:25:07;100669.69;;;11.44;77.54
64967;BME280;51710;38.732;-121.358;2024-03-07T05:27:34;100668.66;;;11.37;77.75
64967;BME280;51710;38.732;-121.358;2024-03-07T05:30:03;100669.97;;;11.32;78.06
64967;BME280;51710;38.732;-121.358;2024-03-07T05:32:31;100661.13;;;11.32;78.63
64967;BME280;51710;38.732;-121.358;2024-03-07T05:35:00;100670.31;;;11.38;79.03
64967;BME280;51710;38.732;-121.358;2024-03-07T05:37:26;100668.00;;;11.43;78.90
64967;BME280;51710;38.732;-121.358;2024-03-07T05:39:53;100670.66;;;11.51;78.81
64967;BME280;51710;38.732;-121.358;2024-03-07T05:42:20;100671.03;;;11.56;78.67
64967;BME280;51710;38.732;-121.358;2024-03-07T05:44:46;100664.03;;;11.63;78.77
64967;BME280;51710;38.732;-121.358;2024-03-07T05:47:16;100669.75;;;11.68;78.27
64967;BME280;51710;38.732;-121.358;2024-03-07T05:49:43;100667.06;;;11.68;78.20
64967;BME280;51710;38.732;-121.358;2024-03-07T05:52:09;100667.38;;;11.65;78.09
64967;BME280;51710;38.732;-121.358;2024-03-07T05:54:36;100662.03;;;11.65;78.00
64967;BME280;51710;38.732;-121.358;2024-03-07T05:57:02;100670.03;;;11.49;77.65
64967;BME280;51710;38.732;-121.358;2024-03-07T05:59:29;100669.63;;;11.27;77.94
64967;BME280;51710;38.732;-121.358;2024-03-07T06:01:56;100670.28;;;11.21;79.24
64967;BME280;51710;38.732;-121.358;2024-03-07T06:04:23;100669.13;;;11.24;79.55
64967;BME280;51710;38.732;-121.358;2024-03-07T06:06:49;100673.78;;;11.30;79.09
64967;BME280;51710;38.732;-121.358;2024-03-07T06:09:16;100663.97;;;11.30;79.16
64967;BME280;51710;38.732;-121.358;2024-03-07T06:11:48;100668.16;;;11.33;78.76
64967;BME280;51710;38.732;-121.358;2024-03-07T06:14:15;100670.50;;;11.36;78.80
64967;BME280;51710;38.732;-121.358;2024-03-07T06:16:42;100676.16;;;11.33;79.43
64967;BME280;51710;38.732;-121.358;2024-03-07T06:19:09;100668.97;;;11.33;79.34
64967;BME280;51710;38.732;-121.358;2024-03-07T06:21:37;100678.81;;;11.33;79.20
64967;BME280;51710;38.732;-121.358;2024-03-07T06:24:07;100682.13;;;11.27;78.84
64967;BME280;51710;38.732;-121.358;2024-03-07T06:26:36;100685.06;;;11.16;78.50
64967;BME280;51710;38.732;-121.358;2024-03-07T06:29:12;100690.72;;;11.05;78.68
64967;BME280;51710;38.732;-121.358;2024-03-07T06:31:39;100693.16;;;10.90;78.51
64967;BME280;51710;38.732;-121.358;2024-03-07T06:34:06;100691.44;;;10.81;78.74
64967;BME280;51710;38.732;-121.358;2024-03-07T06:36:34;100700.38;;;10.72;78.94
64967;BME280;51710;38.732;-121.358;2024-03-07T06:39:01;100697.38;;;10.67;79.46
64967;BME280;51710;38.732;-121.358;2024-03-07T06:41:32;100698.53;;;10.65;79.58
64967;BME280;51710;38.732;-121.358;2024-03-07T06:43:58;100701.50;;;10.62;79.28
64967;BME280;51710;38.732;-121.358;2024-03-07T06:46:25;100699.63;;;10.54;79.48
64967;BME280;51710;38.732;-121.358;2024-03-07T06:48:52;100693.63;;;10.52;79.68
64967;BME280;51710;38.732;-121.358;2024-03-07T06:51:19;100701.44;;;10.54;80.20
64967;BME280;51710;38.732;-121.358;2024-03-07T06:53:49;100690.28;;;10.50;79.93
64967;BME280;51710;38.732;-121.358;2024-03-07T06:56:16;100694.13;;;10.48;80.10
64967;BME280;51710;38.732;-121.358;2024-03-07T06:58:43;100709.03;;;10.41;80.11
64967;BME280;51710;38.732;-121.358;2024-03-07T07:01:12;100702.88;;;10.40;80.81
64967;BME280;51710;38.732;-121.358;2024-03-07T07:03:41;100712.50;;;10.41;80.49
64967;BME280;51710;38.732;-121.358;2024-03-07T07:06:11;100713.34;;;10.42;80.52
64967;BME280;51710;38.732;-121.358;2024-03-07T07:08:37;100707.56;;;10.46;80.60
64967;BME280;51710;38.732;-121.358;2024-03-07T07:11:04;100706.25;;;10.50;80.62
64967;BME280;51710;38.732;-121.358;2024-03-07T07:13:31;100714.25;;;10.50;80.77
64967;BME280;51710;38.732;-121.358;2024-03-07T07:15:57;100710.22;;;10.46;80.93
64967;BME280;51710;38.732;-121.358;2024-03-07T07:18:23;100721.81;;;10.37;80.27
64967;BME280;51710;38.732;-121.358;2024-03-07T07:20:50;100714.94;;;10.27;80.34
64967;BME280;51710;38.732;-121.358;2024-03-07T07:23:19;100718.34;;;10.19;81.00
64967;BME280;51710;38.732;-121.358;2024-03-07T07:25:46;100719.97;;;10.12;81.10
64967;BME280;51710;38.732;-121.358;2024-03-07T07:28:12;100719.56;;;10.07;81.09
64967;BME280;51710;38.732;-121.358;2024-03-07T07:30:39;100719.34;;;10.00;80.75
64967;BME280;51710;38.732;-121.358;2024-03-07T07:33:05;100725.41;;;9.93;81.29
64967;BME280;51710;38.732;-121.358;2024-03-07T07:35:32;100730.38;;;9.88;81.09
64967;BME280;51710;38.732;-121.358;2024-03-07T07:38:00;100735.16;;;9.84;81.55
64967;BME280;51710;38.732;-121.358;2024-03-07T07:40:26;100729.63;;;9.78;81.64
64967;BME280;51710;38.732;-121.358;2024-03-07T07:42:54;100730.53;;;9.69;81.76
64967;BME280;51710;38.732;-121.358;2024-03-07T07:45:22;100724.34;;;9.68;82.22
64967;BME280;51710;38.732;-121.358;2024-03-07T07:47:53;100724.59;;;9.75;82.29
64967;BME280;51710;38.732;-121.358;2024-03-07T07:50:21;100732.94;;;9.80;82.38
64967;BME280;51710;38.732;-121.358;2024-03-07T07:52:49;100734.63;;;9.81;81.85
64967;BME280;51710;38.732;-121.358;2024-03-07T07:55:20;100729.09;;;9.74;81.84
64967;BME280;51710;38.732;-121.358;2024-03-07T07:57:49;100739.72;;;9.74;82.17
64967;BME280;51710;38.732;-121.358;2024-03-07T08:00:19;100735.59;;;9.80;82.52
64967;BME280;51710;38.732;-121.358;2024-03-07T08:02:56;100741.31;;;9.85;82.16
64967;BME280;51710;38.732;-121.358;2024-03-07T08:05:27;100742.66;;;9.89;82.42
64967;BME280;51710;38.732;-121.358;2024-03-07T08:07:57;100733.72;;;9.90;82.02
64967;BME280;51710;38.732;-121.358;2024-03-07T08:10:27;100735.16;;;9.84;81.45
64967;BME280;51710;38.732;-121.358;2024-03-07T08:12:55;100738.13;;;9.81;81.48
64967;BME280;51710;38.732;-121.358;2024-03-07T08:15:21;100743.34;;;9.73;81.54
64967;BME280;51710;38.732;-121.358;2024-03-07T08:17:48;100736.66;;;9.69;81.35
64967;BME280;51710;38.732;-121.358;2024-03-07T08:20:16;100736.00;;;9.67;81.41
64967;BME280;51710;38.732;-121.358;2024-03-07T08:22:56;100732.81;;;9.64;81.55
64967;BME280;51710;38.732;-121.358;2024-03-07T08:25:24;100740.09;;;9.62;81.41
64967;BME280;51710;38.732;-121.358;2024-03-07T08:27:53;100737.63;;;9.51;81.44
64967;BME280;51710;38.732;-121.358;2024-03-07T08:30:20;100733.75;;;9.45;82.18
64967;BME280;51710;38.732;-121.358;2024-03-07T08:32:56;100740.50;;;9.40;82.08
64967;BME280;51710;38.732;-121.358;2024-03-07T08:35:23;100735.47;;;9.37;82.25
64967;BME280;51710;38.732;-121.358;2024-03-07T08:37:51;100742.50;;;9.38;82.07
64967;BME280;51710;38.732;-121.358;2024-03-07T08:40:23;100742.50;;;9.38;82.34
64967;BME280;51710;38.732;-121.358;2024-03-07T08:42:53;100735.47;;;9.37;82.07
64967;BME280;51710;38.732;-121.358;2024-03-07T08:45:22;100738.59;;;9.32;82.07
64967;BME280;51710;38.732;-121.358;2024-03-07T08:47:50;100735.56;;;9.27;82.37
64967;BME280;51710;38.732;-121.358;2024-03-07T08:50:18;100740.88;;;9.27;82.56
64967;BME280;51710;38.732;-121.358;2024-03-07T08:52:45;100741.69;;;9.28;82.41
64967;BME280;51710;38.732;-121.358;2024-03-07T08:55:16;100741.69;;;9.28;82.38
64967;BME280;51710;38.732;-121.358;2024-03-07T08:57:43;100741.16;;;9.24;82.65
64967;BME280;51710;38.732;-121.358;2024-03-07T09:00:13;100737.94;;;9.21;82.55
64967;BME280;51710;38.732;-121.358;2024-03-07T09:02:56;100733.63;;;9.20;82.58
64967;BME280;51710;38.732;-121.358;2024-03-07T09:05:29;100738.50;;;9.24;82.63
64967;BME280;51710;38.732;-121.358;2024-03-07T09:07:55;100737.94;;;9.21;82.39
64967;BME280;51710;38.732;-121.358;2024-03-07T09:10:22;100730.97;;;9.20;82.34
64967;BME280;51710;38.732;-121.358;2024-03-07T09:12:51;100736.28;;;9.20;82.70
64967;BME280;51710;38.732;-121.358;2024-03-07T09:15:18;100739.47;;;9.23;82.63
64967;BME280;51710;38.732;-121.358;2024-03-07T09:17:47;100730.25;;;9.27;82.64
64967;BME280;51710;38.732;-121.358;2024-03-07T09:20:13;100732.44;;;9.32;82.79
64967;BME280;51710;38.732;-121.358;2024-03-07T09:22:45;100742.22;;;9.31;82.39
64967;BME280;51710;38.732;-121.358;2024-03-07T09:25:13;100729.94;;;9.30;83.23
64967;BME280;51710;38.732;-121.358;2024-03-07T09:27:40;100737.06;;;9.30;82.38
64967;BME280;51710;38.732;-121.358;2024-03-07T09:30:08;100738.91;;;9.29;82.67
64967;BME280;51710;38.732;-121.358;2024-03-07T09:32:39;100742.38;;;9.30;82.75
64967;BME280;51710;38.732;-121.358;2024-03-07T09:35:07;100749.38;;;9.31;82.67
64967;BME280;51710;38.732;-121.358;2024-03-07T09:37:40;100747.31;;;9.25;82.38
64967;BME280;51710;38.732;-121.358;2024-03-07T09:40:08;100756.28;;;9.24;83.00
64967;BME280;51710;38.732;-121.358;2024-03-07T09:42:45;100747.59;;;9.22;82.65
64967;BME280;51710;38.732;-121.358;2024-03-07T09:45:17;100751.91;;;9.23;83.08
64967;BME280;51710;38.732;-121.358;2024-03-07T09:47:46;100749.72;;;9.18;82.91
64967;BME280;51710;38.732;-121.358;2024-03-07T09:50:15;100747.50;;;9.13;82.91
64967;BME280;51710;38.732;-121.358;2024-03-07T09:52:48;100743.78;;;9.06;82.91
64967;BME280;51710;38.732;-121.358;2024-03-07T09:55:18;100749.09;;;9.06;83.27
64967;BME280;51710;38.732;-121.358;2024-03-07T09:57:47;100748.78;;;9.09;83.00
64967;BME280;51710;38.732;-121.358;2024-03-07T10:00:17;100748.63;;;9.11;83.01
64967;BME280;51710;38.732;-121.358;2024-03-07T10:02:59;100740.50;;;9.13;83.57
64967;BME280;51710;38.732;-121.358;2024-03-07T10:05:28;100738.72;;;9.13;83.20
64967;BME280;51710;38.732;-121.358;2024-03-07T10:07:55;100736.75;;;9.15;83.62
64967;BME280;51710;38.732;-121.358;2024-03-07T10:10:21;100738.25;;;9.18;83.02
64967;BME280;51710;38.732;-121.358;2024-03-07T10:12:49;100737.28;;;9.19;83.26
64967;BME280;51710;38.732;-121.358;2024-03-07T10:15:19;100728.31;;;9.20;83.13
64967;BME280;51710;38.732;-121.358;2024-03-07T10:17:45;100733.47;;;9.21;83.39
64967;BME280;51710;38.732;-121.358;2024-03-07T10:20:18;100728.63;;;9.17;82.78
64967;BME280;51710;38.732;-121.358;2024-03-07T10:22:48;100721.63;;;9.16;82.95
64967;BME280;51710;38.732;-121.358;2024-03-07T10:25:21;100724.28;;;9.16;82.84
64967;BME280;51710;38.732;-121.358;2024-03-07T10:27:51;100720.25;;;9.12;82.74
64967;BME280;51710;38.732;-121.358;2024-03-07T10:30:17;100720.00;;;9.05;82.66
64967;BME280;51710;38.732;-121.358;2024-03-07T10:32:59;100721.44;;;8.99;82.60
64967;BME280;51710;38.732;-121.358;2024-03-07T10:35:26;100714.19;;;8.92;82.73
64967;BME280;51710;38.732;-121.358;2024-03-07T10:37:55;100716.19;;;8.80;82.95
64967;BME280;51710;38.732;-121.358;2024-03-07T10:40:22;100714.84;;;8.76;83.05
64967;BME280;51710;38.732;-121.358;2024-03-07T10:42:56;100715.13;;;8.73;82.89
64967;BME280;51710;38.732;-121.358;2024-03-07T10:45:23;100711.47;;;8.74;83.42
64967;BME280;51710;38.732;-121.358;2024-03-07T10:47:53;100714.97;;;8.75;83.05
64967;BME280;51710;38.732;-121.358;2024-03-07T10:50:36;100710.78;;;8.72;83.20
64967;BME280;51710;38.732;-121.358;2024-03-07T10:59:01;100704.69;;;8.62;82.92
64967;BME280;51710;38.732;-121.358;2024-03-07T11:01:37;100709.59;;;8.57;82.93
64967;BME280;51710;38.732;-121.358;2024-03-07T11:04:04;100703.19;;;8.50;83.11
64967;BME280;51710;38.732;-121.358;2024-03-07T11:06:32;100699.84;;;8.48;83.24
64967;BME280;51710;38.732;-121.358;2024-03-07T11:09:03;100703.75;;;8.44;83.36
64967;BME280;51710;38.732;-121.358;2024-03-07T11:11:52;100704.59;;;8.45;83.27
64967;BME280;51710;38.732;-121.358;2024-03-07T11:14:19;100708.75;;;8.47;83.41
64967;BME280;51710;38.732;-121.358;2024-03-07T11:16:47;100710.31;;;8.50;83.56
64967;BME280;51710;38.732;-121.358;2024-03-07T11:19:20;100709.03;;;8.54;83.58
64967;BME280;51710;38.732;-121.358;2024-03-07T11:21:52;100717.81;;;8.54;83.49
64967;BME280;51710;38.732;-121.358;2024-03-07T11:24:26;100724.28;;;8.52;83.20
64967;BME280;51710;38.732;-121.358;2024-03-07T11:26:57;100723.63;;;8.40;82.64
64967;BME280;51710;38.732;-121.358;2024-03-07T11:29:49;100732.84;;;8.17;82.30
64967;BME280;51710;38.732;-121.358;2024-03-07T11:32:19;100736.47;;;7.97;82.23
64967;BME280;51710;38.732;-121.358;2024-03-07T11:34:49;100735.94;;;7.84;83.44
64967;BME280;51710;38.732;-121.358;2024-03-07T11:37:38;100721.69;;;7.85;83.99
64967;BME280;51710;38.732;-121.358;2024-03-07T11:42:47;100718.34;;;7.92;83.35
64967;BME280;51710;38.732;-121.358;2024-03-07T11:45:14;100717.19;;;7.95;83.59
64967;BME280;51710;38.732;-121.358;2024-03-07T11:47:57;100711.78;;;7.96;83.28
64967;BME280;51710;38.732;-121.358;2024-03-07T11:50:33;100708.00;;;7.99;83.57
64967;BME280;51710;38.732;-121.358;2024-03-07T11:53:03;100713.59;;;7.96;83.33
64967;BME280;51710;38.732;-121.358;2024-03-07T11:55:37;100722.50;;;7.95;83.76
64967;BME280;51710;38.732;-121.358;2024-03-07T11:58:20;100722.78;;;7.92;83.10
64967;BME280;51710;38.732;-121.358;2024-03-07T12:00:48;100715.53;;;7.94;83.71
64967;BME280;51710;38.732;-121.358;2024-03-07T12:03:15;100723.22;;;7.97;83.58
64967;BME280;51710;38.732;-121.358;2024-03-07T12:05:52;100726.28;;;8.02;83.74
64967;BME280;51710;38.732;-121.358;2024-03-07T12:08:19;100733.97;;;8.05;83.57
64967;BME280;51710;38.732;-121.358;2024-03-07T12:10:48;100723.91;;;8.09;83.62
64967;BME280;51710;38.732;-121.358;2024-03-07T12:13:19;100719.97;;;8.13;83.62
64967;BME280;51710;38.732;-121.358;2024-03-07T12:15:46;100719.97;;;8.13;83.59
64967;BME280;51710;38.732;-121.358;2024-03-07T12:18:13;100722.78;;;8.11;83.45
64967;BME280;51710;38.732;-121.358;2024-03-07T12:20:44;100729.47;;;8.15;84.01
64967;BME280;51710;38.732;-121.358;2024-03-07T12:23:22;100735.91;;;8.22;83.92
64967;BME280;51710;38.732;-121.358;2024-03-07T12:26:00;100740.09;;;8.25;83.39
64967;BME280;51710;38.732;-121.358;2024-03-07T12:28:30;100737.56;;;8.23;83.73
64967;BME280;51710;38.732;-121.358;2024-03-07T12:30:59;100732.25;;;8.23;83.63
64967;BME280;51710;38.732;-121.358;2024-03-07T12:33:29;100738.53;;;8.22;83.47
64967;BME280;51710;38.732;-121.358;2024-03-07T12:35:57;100737.84;;;8.20;83.71
64967;BME280;51710;38.732;-121.358;2024-03-07T12:38:31;100730.47;;;8.24;83.86